Terminal Aerodrome Forecast
Issued by NWS

Home | Current Version | Previous Version | Text Only | Print | Product List | Glossary On
Versions: 1 2 3 4 5 6 7 8 9 10 11 12 13 14 15 16
139
FTUS44 KCRP 231740
TAFALI
TAF
KALI 231740Z 2318/2418 02009KT P6SM SCT030 BKN080
      TEMPO 2319/2321 BKN030 OVC080
     FM232100 VRB05KT P6SM VCTS BKN035CB
      TEMPO 2400/2403 VRB20G40KT 5SM -TSRA OVC030CB
     FM240300 36014G18KT P6SM BKN035
     FM240600 36012KT P6SM BKN050 OVC150
     FM241200 36005KT P6SM SCT200=

USA.gov is the U.S. government's official web portal to all federal, state and local government web resources and services.